Terminal Aerodrome Forecast
Issued by NWS Charleston, WV

Current Version | Previous Version | Text Only | Print | Product List | Glossary Off
Versions: 1 2 3 4 5 6 7 8 9 10 11 12 13 14 15 16 17 18 19 20 21 22

000
FTUS41 KRLX 231900 AAA
TAFHTS
TAF AMD
KHTS 231934Z 2320/2418 29008KT P6SM SCT080
      TEMPO 2320/2321 3SM TSRA BKN025CB
     FM240300 VRB03KT 6SM BR VCTS OVC025CB
     FM240500 01004KT 6SM BR VCTS OVC020CB
     FM240800 01006KT 6SM BR BKN020
     FM241100 36007KT P6SM BKN035=

USA.gov is the U.S. government's official web portal to all federal, state and local government web resources and services.